Time;durP1;ratioP1;P1;durP2;ratioP2;P2;SDS_P1;SDS_P2;PMS_P1;PMS_P2;Temp;Humidity;BMP_temperature;BMP_pressure;BME280_temperature;BME280_humidity;BME280_pressure;Samples;Min_cycle;Max_cycle;Signal;HPM_P1;HPM_P2
2021/05/25 00:01:16;;;;;;;5.38;3.65;;;;;;;20.76;57.42;95128.41;2957100;40;20057;-70
2021/05/25 00:03:18;;;;;;;4.00;3.35;;;;;;;20.61;57.93;95121.50;2959003;40;20310;-70
2021/05/25 00:05:27;;;;;;;6.60;3.53;;;;;;;20.62;57.95;95125.78;2958359;40;20055;-71
2021/05/25 00:07:28;;;;;;;4.28;3.42;;;;;;;20.64;57.84;95120.25;2959028;40;20049;-71
2021/05/25 00:09:30;;;;;;;7.80;3.78;;;;;;;20.65;57.91;95121.91;2959449;40;20053;-72
2021/05/25 00:11:32;;;;;;;5.82;3.85;;;;;;;20.68;57.61;95112.69;2959819;40;20052;-70
2021/05/25 00:13:37;;;;;;;4.47;3.78;;;;;;;20.67;57.82;95122.50;2949451;40;20061;-71
2021/05/25 00:15:39;;;;;;;5.47;4.07;;;;;;;20.65;57.84;95117.41;2958898;40;20077;-70
2021/05/25 00:17:41;;;;;;;4.80;3.80;;;;;;;20.71;57.67;95115.72;2957828;40;20064;-69
2021/05/25 00:19:42;;;;;;;21.35;14.30;;;;;;;20.67;57.83;95117.16;2957829;40;20059;-71
2021/05/25 00:21:45;;;;;;;10.07;5.40;;;;;;;20.72;57.60;95121.88;2958349;40;20072;-72
2021/05/25 00:23:47;;;;;;;6.32;4.65;;;;;;;20.70;57.90;95119.41;2953577;40;20445;-71
2021/05/25 00:25:48;;;;;;;6.95;4.55;;;;;;;20.74;57.55;95125.16;2958271;40;20053;-69
2021/05/25 00:27:52;;;;;;;5.72;4.25;;;;;;;20.67;57.86;95127.81;2958629;40;20057;-71
2021/05/25 00:29:55;;;;;;;5.88;4.80;;;;;;;20.61;57.96;95118.84;2958373;40;20060;-70
2021/05/25 00:31:57;;;;;;;6.93;5.22;;;;;;;20.52;58.57;95116.59;2958479;40;20376;-71
2021/05/25 00:33:58;;;;;;;10.90;5.13;;;;;;;20.46;58.59;95111.09;2959113;40;20103;-70
2021/05/25 00:36:03;;;;;;;8.48;5.30;;;;;;;20.51;58.28;95109.66;2958409;40;20540;-71
2021/05/25 00:38:11;;;;;;;7.28;5.82;;;;;;;20.49;58.65;95107.19;2942836;40;20166;-70
2021/05/25 00:40:14;;;;;;;6.50;5.50;;;;;;;20.52;58.16;95105.94;2954448;40;20048;-70
2021/05/25 00:42:18;;;;;;;7.45;5.82;;;;;;;20.50;58.36;95092.88;2955779;40;20160;-70
2021/05/25 00:44:20;;;;;;;6.95;5.50;;;;;;;20.51;58.19;95088.34;2955109;40;20053;-70
2021/05/25 00:46:22;;;;;;;8.65;6.47;;;;;;;20.47;58.42;95077.31;2955187;40;20144;-69
2021/05/25 00:48:24;;;;;;;7.20;6.15;;;;;;;20.44;58.57;95077.75;2959126;40;20052;-71
2021/05/25 00:50:28;;;;;;;10.27;6.50;;;;;;;20.35;58.80;95082.47;2958427;40;20069;-70
2021/05/25 00:52:30;;;;;;;9.50;6.63;;;;;;;20.30;58.96;95087.59;2956129;40;20307;-84
2021/05/25 00:54:33;;;;;;;12.27;7.28;;;;;;;20.22;59.24;95080.69;2959217;40;20061;-82
2021/05/25 00:56:34;;;;;;;9.73;6.65;;;;;;;19.89;60.28;95078.09;2959541;40;20069;-81
2021/05/25 00:58:36;;;;;;;10.02;7.10;;;;;;;19.81;60.81;95080.97;2960896;40;20048;-83
2021/05/25 01:00:39;;;;;;;11.88;7.80;;;;;;;19.88;60.43;95079.13;2960228;40;20050;-83
2021/05/25 01:02:41;;;;;;;12.87;7.90;;;;;;;19.91;60.41;95078.69;2951587;40;20061;-81
2021/05/25 01:04:42;;;;;;;13.68;8.77;;;;;;;20.00;59.92;95093.44;2959886;40;20387;-82
2021/05/25 01:06:44;;;;;;;9.60;7.53;;;;;;;20.09;59.65;95112.63;2959182;40;20075;-82
2021/05/25 01:08:46;;;;;;;9.27;7.90;;;;;;;20.17;59.47;95116.91;2958560;40;20080;-71
2021/05/25 01:10:55;;;;;;;10.75;8.10;;;;;;;20.23;59.16;95110.75;2958218;40;22875;-71
2021/05/25 01:13:03;;;;;;;12.27;7.78;;;;;;;20.29;59.01;95106.44;2960580;40;20072;-82
2021/05/25 01:15:09;;;;;;;9.45;7.60;;;;;;;20.21;59.58;95105.63;2961760;40;20048;-82
2021/05/25 01:17:11;;;;;;;14.20;7.97;;;;;;;20.23;59.16;95108.91;2960149;40;20085;-82
2021/05/25 01:19:13;;;;;;;12.93;8.43;;;;;;;20.23;59.17;95108.09;2956972;40;20052;-82
2021/05/25 01:21:15;;;;;;;11.13;8.25;;;;;;;20.23;59.13;95105.44;2960308;40;20085;-80
2021/05/25 01:23:17;;;;;;;8.88;7.88;;;;;;;20.24;59.07;95107.06;2961007;40;20066;-81
2021/05/25 01:25:20;;;;;;;10.65;8.40;;;;;;;20.24;58.98;95099.91;2959885;40;20052;-82
2021/05/25 01:27:22;;;;;;;9.40;7.82;;;;;;;20.27;58.75;95111.16;2959732;40;20057;-84
2021/05/25 01:29:24;;;;;;;9.95;7.63;;;;;;;20.28;58.79;95105.59;2959577;40;20441;-83
2021/05/25 01:31:47;;;;;;;10.82;7.55;;;;;;;20.27;58.77;95103.19;2957076;40;20562;-81
2021/05/25 01:33:49;;;;;;;10.27;8.85;;;;;;;20.24;59.01;95105.22;2957147;40;20146;-82
2021/05/25 01:35:51;;;;;;;13.50;8.73;;;;;;;20.17;59.29;95098.28;2959332;40;20087;-82
2021/05/25 01:37:55;;;;;;;13.50;8.65;;;;;;;20.12;59.50;95090.94;2949921;40;20052;-80
2021/05/25 01:39:57;;;;;;;11.25;8.57;;;;;;;20.12;59.63;95095.44;2966099;40;20089;-83
2021/05/25 01:41:59;;;;;;;11.40;8.57;;;;;;;20.09;59.51;95087.88;2958787;40;20096;-81
2021/05/25 01:44:18;;;;;;;9.93;8.30;;;;;;;20.00;59.71;95084.63;2957819;40;20063;-81
2021/05/25 01:46:20;;;;;;;15.10;9.07;;;;;;;19.97;59.87;95079.72;2958518;40;20097;-82
2021/05/25 01:48:22;;;;;;;11.23;9.05;;;;;;;19.86;60.14;95083.84;2958626;40;20075;-82
2021/05/25 01:50:25;;;;;;;11.57;9.18;;;;;;;19.78;60.31;95092.03;2959023;40;20092;-82
2021/05/25 01:52:27;;;;;;;12.45;9.23;;;;;;;19.73;60.41;95095.31;2953407;40;20085;-82
2021/05/25 01:54:28;;;;;;;12.88;9.48;;;;;;;19.79;60.23;95085.69;2960097;40;20053;-83
2021/05/25 01:56:30;;;;;;;11.75;9.05;;;;;;;19.75;60.51;95081.81;2961072;40;20060;-82
2021/05/25 01:58:33;;;;;;;11.43;9.43;;;;;;;19.70;60.56;95081.59;2960868;40;20072;-83
2021/05/25 02:00:37;;;;;;;12.50;9.30;;;;;;;19.71;60.46;95077.94;2960806;40;20118;-83
2021/05/25 02:02:38;;;;;;;;;;;;;;;19.75;60.34;95073.84;2958005;40;20069;-81
2021/05/25 02:04:40;;;;;;;12.77;10.18;;;;;;;19.74;60.30;95066.88;2960156;40;19936;-83
2021/05/25 02:06:42;;;;;;;11.82;8.63;;;;;;;19.75;60.22;95074.66;2956631;40;20060;-82
2021/05/25 02:08:43;;;;;;;14.18;10.65;;;;;;;19.75;60.34;95066.69;2959142;40;20192;-83
2021/05/25 02:10:47;;;;;;;10.40;9.15;;;;;;;19.78;60.07;95065.44;2960584;40;20337;-82
2021/05/25 02:12:49;;;;;;;;;;;;;;;19.81;60.31;95065.00;2958118;40;20139;-81
2021/05/25 02:14:51;;;;;;;12.27;9.48;;;;;;;19.78;60.20;95065.44;2959549;40;20017;-82
2021/05/25 02:16:52;;;;;;;12.38;9.18;;;;;;;19.76;60.24;95070.16;2961136;40;20060;-82
2021/05/25 02:18:54;;;;;;;11.80;10.23;;;;;;;19.78;59.97;95074.22;2957933;40;20059;-82
2021/05/25 02:20:58;;;;;;;13.35;10.32;;;;;;;19.76;60.27;95070.94;2960416;40;20333;-81
2021/05/25 02:23:00;;;;;;;14.32;9.75;;;;;;;19.76;60.03;95070.94;2956911;40;20057;-85
2021/05/25 02:25:03;;;;;;;11.82;9.50;;;;;;;19.76;59.98;95073.63;2960867;40;20358;-82
2021/05/25 02:27:05;;;;;;;11.73;8.45;;;;;;;19.69;60.18;95067.47;2959499;40;20048;-82
2021/05/25 02:29:07;;;;;;;13.02;9.60;;;;;;;19.64;60.15;95062.78;2958238;40;20084;-82
2021/05/25 02:31:09;;;;;;;15.20;9.30;;;;;;;19.58;60.12;95057.47;2960876;40;20108;-82
2021/05/25 02:33:13;;;;;;;12.23;8.80;;;;;;;19.54;60.26;95059.72;2962351;40;20056;-81
2021/05/25 02:35:16;;;;;;;11.10;9.00;;;;;;;19.52;60.30;95061.75;2956436;40;20057;-81
2021/05/25 02:37:18;;;;;;;12.40;9.00;;;;;;;19.52;60.32;95058.28;2952691;40;20075;-83
2021/05/25 02:39:20;;;;;;;13.75;8.85;;;;;;;19.50;59.99;95058.47;2956253;40;20061;-82
2021/05/25 02:41:21;;;;;;;13.63;8.80;;;;;;;19.36;60.90;95056.84;2954689;40;20096;-82
2021/05/25 02:43:25;;;;;;;13.45;9.00;;;;;;;19.32;60.76;95063.63;2956397;40;20064;-82
2021/05/25 02:45:28;;;;;;;15.90;9.07;;;;;;;19.28;60.63;95065.84;2963436;40;20477;-82
2021/05/25 02:47:29;;;;;;;12.10;8.80;;;;;;;19.27;60.73;95063.41;2960781;40;20055;-82
2021/05/25 02:49:31;;;;;;;11.63;9.05;;;;;;;19.29;60.46;95064.81;2958432;40;20053;-82
2021/05/25 02:51:33;;;;;;;12.65;9.63;;;;;;;19.28;60.64;95073.00;2957445;40;20050;-82
2021/05/25 02:53:35;;;;;;;14.13;9.77;;;;;;;19.19;60.61;95069.75;2959972;40;20092;-81
2021/05/25 02:55:39;;;;;;;12.63;9.95;;;;;;;19.24;60.58;95070.75;2954804;40;20052;-82
2021/05/25 02:57:42;;;;;;;15.10;10.18;;;;;;;19.29;60.55;95074.63;2951162;40;20049;-82
2021/05/25 02:59:43;;;;;;;15.45;10.40;;;;;;;19.30;60.51;95084.25;2958875;40;20405;-83
2021/05/25 03:01:45;;;;;;;14.15;9.52;;;;;;;19.30;60.47;95076.28;2960714;40;20048;-81
2021/05/25 03:03:47;;;;;;;13.93;9.75;;;;;;;19.25;60.61;95068.91;2960732;40;20096;-84
2021/05/25 03:05:49;;;;;;;13.13;10.15;;;;;;;19.27;60.41;95071.38;2956682;40;20085;-84
2021/05/25 03:07:52;;;;;;;18.38;11.32;;;;;;;19.23;60.40;95061.16;2959168;40;20327;-83
2021/05/25 03:09:54;;;;;;;15.90;10.77;;;;;;;19.19;60.64;95062.59;2960284;40;20049;-82
2021/05/25 03:11:56;;;;;;;14.77;10.05;;;;;;;19.20;60.69;95058.88;2960035;40;20463;-82
2021/05/25 03:13:57;;;;;;;13.68;10.60;;;;;;;19.21;60.45;95068.50;2955737;40;20077;-82
2021/05/25 03:15:59;;;;;;;14.18;10.98;;;;;;;19.24;60.40;95059.31;2956731;40;20414;-82
2021/05/25 03:18:02;;;;;;;18.08;10.68;;;;;;;19.27;60.26;95071.38;2957614;40;20060;-82
2021/05/25 03:20:06;;;;;;;11.73;9.73;;;;;;;19.22;60.41;95070.13;2955621;40;20652;-82
2021/05/25 03:22:08;;;;;;;17.00;10.15;;;;;;;19.28;60.17;95071.16;2956724;40;20052;-82
2021/05/25 03:24:10;;;;;;;14.68;10.63;;;;;;;19.31;60.08;95073.41;2956640;40;20072;-82
2021/05/25 03:26:12;;;;;;;15.13;11.23;;;;;;;19.23;60.38;95071.78;2959112;40;20184;-83
2021/05/25 03:28:13;;;;;;;15.73;11.10;;;;;;;19.11;60.73;95075.25;2958020;40;20079;-70
2021/05/25 03:30:19;;;;;;;13.30;10.18;;;;;;;19.01;61.24;95076.47;2957643;40;20060;-70
2021/05/25 03:32:21;;;;;;;13.73;10.00;;;;;;;18.94;61.35;95077.47;2944941;40;20059;-71
2021/05/25 03:34:23;;;;;;;17.25;10.60;;;;;;;18.98;61.39;95078.69;2958221;40;20060;-69
2021/05/25 03:36:25;;;;;;;14.35;10.25;;;;;;;19.00;61.20;95087.28;2953929;40;20433;-71
2021/05/25 03:38:26;;;;;;;16.52;10.82;;;;;;;19.05;61.34;95089.31;2958523;40;20413;-70
2021/05/25 03:40:28;;;;;;;16.23;10.07;;;;;;;19.07;61.25;95096.06;2957856;40;20063;-69
2021/05/25 03:42:30;;;;;;;14.65;10.10;;;;;;;19.10;60.92;95102.81;2957167;40;20284;-70
2021/05/25 03:44:32;;;;;;;18.55;9.75;;;;;;;19.12;60.76;95104.25;2958980;40;20052;-85
2021/05/25 03:46:34;;;;;;;13.80;9.93;;;;;;;19.18;60.73;95105.28;2957010;40;20407;-82
2021/05/25 03:48:36;;;;;;;14.63;10.00;;;;;;;19.17;60.36;95104.47;2955936;40;20088;-80
2021/05/25 03:50:38;;;;;;;15.65;9.73;;;;;;;19.19;60.67;95105.06;2963461;40;20056;-84
2021/05/25 03:52:42;;;;;;;15.40;9.02;;;;;;;19.24;60.58;95102.63;2957728;40;20061;-82
2021/05/25 03:54:51;;;;;;;12.13;8.48;;;;;;;19.26;60.42;95098.97;2955097;40;20087;-83
2021/05/25 03:57:00;;;;;;;14.63;9.50;;;;;;;19.16;61.08;95105.47;2958508;40;20268;-82
2021/05/25 03:59:01;;;;;;;13.43;10.05;;;;;;;19.12;60.91;95106.91;2956510;40;20137;-82
2021/05/25 04:01:04;;;;;;;11.20;8.70;;;;;;;19.17;60.82;95111.63;2957296;40;20053;-81
2021/05/25 04:03:06;;;;;;;14.35;9.68;;;;;;;19.15;60.70;95111.81;2958047;40;20437;-83
2021/05/25 04:05:08;;;;;;;14.93;9.43;;;;;;;19.02;61.15;95114.44;2960154;40;20068;-83
2021/05/25 04:07:10;;;;;;;14.73;9.35;;;;;;;19.08;61.04;95100.38;2960028;40;20037;-82
2021/05/25 04:09:12;;;;;;;14.63;9.18;;;;;;;19.08;61.05;95092.41;2956347;40;20045;-83
2021/05/25 04:11:15;;;;;;;16.88;9.80;;;;;;;19.03;61.24;95087.66;2960103;40;20065;-84
2021/05/25 04:13:17;;;;;;;13.23;8.68;;;;;;;19.17;61.01;95090.38;2958925;40;20055;-83
2021/05/25 04:15:19;;;;;;;12.30;8.68;;;;;;;19.26;60.54;95096.31;2958972;40;20074;-83
2021/05/25 04:17:20;;;;;;;16.98;8.63;;;;;;;19.37;60.42;95103.66;2959710;40;20053;-85
2021/05/25 04:19:22;;;;;;;11.13;7.90;;;;;;;19.48;60.14;95104.88;2960284;40;20052;-82
2021/05/25 04:21:24;;;;;;;15.60;9.63;;;;;;;19.54;59.99;95107.53;2953801;40;20409;-70
2021/05/25 04:23:26;;;;;;;13.77;7.97;;;;;;;19.55;59.59;95111.84;2958247;40;20092;-70
2021/05/25 04:25:28;;;;;;;17.95;9.15;;;;;;;19.58;59.77;95108.78;2957107;40;20077;-70
2021/05/25 04:27:30;;;;;;;13.63;8.32;;;;;;;19.42;60.09;95114.47;2953696;40;20057;-70
2021/05/25 04:29:31;;;;;;;10.40;7.78;;;;;;;19.36;60.50;95113.47;2957014;40;20136;-70
2021/05/25 04:31:33;;;;;;;13.57;9.05;;;;;;;19.34;60.41;95120.81;2957298;40;20059;-69
2021/05/25 04:33:35;;;;;;;13.38;9.32;;;;;;;19.05;61.20;95121.19;2957206;40;20061;-71
2021/05/25 04:35:37;;;;;;;16.13;8.90;;;;;;;19.11;61.15;95125.69;2958026;40;20069;-70
2021/05/25 04:37:39;;;;;;;14.20;9.00;;;;;;;19.22;60.96;95141.03;2958432;40;20391;-69
2021/05/25 04:39:41;;;;;;;14.73;8.55;;;;;;;19.29;60.69;95131.22;2957936;40;20137;-70
2021/05/25 04:41:43;;;;;;;14.05;8.80;;;;;;;19.48;60.10;95126.16;2958454;40;20073;-72
2021/05/25 04:43:44;;;;;;;12.02;8.70;;;;;;;19.62;60.19;95122.47;2956951;40;20106;-71
2021/05/25 04:45:47;;;;;;;15.43;8.07;;;;;;;19.73;59.80;95131.69;2956713;40;20120;-71
2021/05/25 04:47:49;;;;;;;13.02;8.13;;;;;;;19.79;59.54;95133.53;2957502;40;20486;-71
2021/05/25 04:49:51;;;;;;;13.73;7.70;;;;;;;19.86;59.12;95130.88;2959374;40;20073;-71
2021/05/25 04:51:52;;;;;;;16.48;7.40;;;;;;;19.84;58.98;95131.88;2959215;40;20348;-70
2021/05/25 04:53:54;;;;;;;11.85;6.68;;;;;;;19.92;58.78;95138.84;2958192;40;20188;-70
2021/05/25 04:55:56;;;;;;;11.65;7.00;;;;;;;19.79;58.99;95142.34;2955587;40;20062;-70
2021/05/25 04:57:57;;;;;;;11.20;7.15;;;;;;;19.66;59.21;95137.00;2959279;40;20379;-71
2021/05/25 05:00:00;;;;;;;10.65;6.57;;;;;;;19.50;59.65;95135.53;2959491;40;20511;-71
2021/05/25 05:02:02;;;;;;;9.95;6.65;;;;;;;19.36;60.29;95141.84;2955133;40;20066;-70
2021/05/25 05:04:04;;;;;;;10.63;5.40;;;;;;;19.33;60.61;95143.09;2959727;40;20135;-71
2021/05/25 05:06:06;;;;;;;15.35;6.10;;;;;;;19.44;60.26;95152.28;2959633;40;20071;-84
2021/05/25 05:08:07;;;;;;;11.18;6.22;;;;;;;19.63;59.72;95140.84;2957914;40;20416;-85
2021/05/25 05:10:10;;;;;;;8.98;5.60;;;;;;;19.61;59.31;95144.75;2961659;40;20071;-82
2021/05/25 05:12:12;;;;;;;11.48;5.63;;;;;;;19.52;59.58;95141.47;2964243;40;20088;-82
2021/05/25 05:14:13;;;;;;;7.78;4.95;;;;;;;19.65;59.45;95141.47;2960182;40;20059;-84
2021/05/25 05:16:15;;;;;;;7.65;4.97;;;;;;;19.79;59.29;95139.69;2959504;40;20053;-85
2021/05/25 05:18:17;;;;;;;8.77;5.05;;;;;;;19.76;58.82;95144.56;2955749;40;20107;-69
2021/05/25 05:20:19;;;;;;;9.88;5.30;;;;;;;19.82;58.62;95157.03;2957460;40;20215;-70
2021/05/25 05:22:20;;;;;;;12.07;5.78;;;;;;;19.75;58.83;95166.88;2958830;40;20053;-83
2021/05/25 05:24:22;;;;;;;9.98;6.78;;;;;;;19.83;58.91;95156.00;2961394;40;20053;-84
2021/05/25 05:26:24;;;;;;;13.25;6.82;;;;;;;19.99;58.46;95163.56;2959072;40;20471;-83
2021/05/25 05:28:26;;;;;;;14.00;7.18;;;;;;;20.11;58.20;95154.97;2962843;40;20068;-82
2021/05/25 05:30:27;;;;;;;10.50;6.47;;;;;;;20.26;57.54;95155.53;2961609;40;20437;-83
2021/05/25 05:32:29;;;;;;;11.48;6.13;;;;;;;20.33;57.22;95156.38;2961298;40;20407;-83
2021/05/25 05:34:31;;;;;;;10.02;5.82;;;;;;;20.36;57.11;95147.97;2949968;40;20101;-85
2021/05/25 05:36:33;;;;;;;15.02;5.57;;;;;;;20.31;57.91;95160.28;2959416;40;20055;-83
2021/05/25 05:38:35;;;;;;;7.95;5.68;;;;;;;20.41;57.38;95156.16;2961848;40;20132;-83
2021/05/25 05:40:37;;;;;;;7.30;4.72;;;;;;;20.34;56.54;95152.66;2960905;40;20310;-84
2021/05/25 05:42:40;;;;;;;12.02;5.63;;;;;;;20.31;57.03;95153.09;2961206;40;20136;-86
2021/05/25 05:44:43;;;;;;;8.30;4.55;;;;;;;20.49;56.81;95160.41;2960956;40;20064;-84
2021/05/25 05:46:46;;;;;;;;;;;;;;;20.59;56.69;95162.69;2962433;40;20065;-85
2021/05/25 05:48:47;;;;;;;7.72;4.60;;;;;;;20.55;56.49;95159.56;2961578;40;19955;-84
2021/05/25 05:50:49;;;;;;;7.40;4.90;;;;;;;20.59;56.75;95154.69;2961998;40;20068;-81
2021/05/25 05:52:51;;;;;;;10.68;4.97;;;;;;;20.66;56.44;95156.28;2954303;40;20072;-83
2021/05/25 05:54:52;;;;;;;11.68;4.88;;;;;;;20.76;55.92;95155.84;2962055;40;20141;-84
2021/05/25 05:56:54;;;;;;;8.45;4.53;;;;;;;20.69;56.11;95149.72;2959859;40;20062;-82
2021/05/25 05:58:56;;;;;;;8.70;4.63;;;;;;;20.66;56.80;95145.63;2959170;40;20049;-85
2021/05/25 06:00:58;;;;;;;9.02;4.85;;;;;;;20.67;56.44;95146.44;2961825;40;20116;-85
2021/05/25 06:03:00;;;;;;;11.13;5.00;;;;;;;20.88;56.01;95148.00;2962411;40;20142;-83
2021/05/25 06:05:02;;;;;;;8.77;5.28;;;;;;;21.09;55.58;95146.06;2961635;40;20052;-86
2021/05/25 06:07:04;;;;;;;11.05;6.07;;;;;;;21.31;54.87;95144.69;2960748;40;20041;-85
2021/05/25 06:09:07;;;;;;;10.18;5.03;;;;;;;21.51;54.21;95149.94;2960469;40;20049;-83
2021/05/25 06:11:09;;;;;;;7.85;5.60;;;;;;;21.54;54.11;95146.81;2959914;40;20084;-83
2021/05/25 06:13:11;;;;;;;12.85;5.80;;;;;;;21.47;54.76;95148.72;2959785;40;20096;-84
2021/05/25 06:15:13;;;;;;;6.43;5.07;;;;;;;21.33;54.80;95133.81;2960760;40;20060;-83
2021/05/25 06:17:15;;;;;;;11.07;6.07;;;;;;;21.42;54.45;95146.72;2955923;40;20310;-71
2021/05/25 06:19:17;;;;;;;9.57;5.07;;;;;;;21.65;53.66;95154.13;2958994;40;20158;-85
2021/05/25 06:21:19;;;;;;;10.13;5.80;;;;;;;21.91;53.07;95154.13;2956881;40;20096;-82
2021/05/25 06:23:21;;;;;;;9.93;5.18;;;;;;;21.89;53.28;95149.81;2960752;40;20056;-84
2021/05/25 06:25:23;;;;;;;9.23;5.07;;;;;;;21.84;53.19;95151.53;2958465;40;20075;-85
2021/05/25 06:27:24;;;;;;;6.60;4.60;;;;;;;21.73;53.14;95141.56;2964569;40;20126;-84
2021/05/25 06:29:26;;;;;;;8.30;4.80;;;;;;;21.55;53.59;95158.31;2956747;40;20053;-84
2021/05/25 06:31:28;;;;;;;13.45;4.60;;;;;;;21.48;53.99;95156.50;2960736;40;20060;-84
2021/05/25 06:33:30;;;;;;;8.57;4.90;;;;;;;21.61;54.02;95155.59;2960236;40;20052;-84
2021/05/25 06:35:33;;;;;;;12.25;5.25;;;;;;;21.52;53.75;95148.09;2963232;40;20048;-86
2021/05/25 06:37:35;;;;;;;10.40;4.78;;;;;;;21.67;53.55;95151.25;2958063;40;20069;-84
2021/05/25 06:39:37;;;;;;;8.30;5.25;;;;;;;21.84;53.05;95148.84;2960232;40;20049;-84
2021/05/25 06:41:39;;;;;;;8.77;5.22;;;;;;;22.01;53.01;95144.59;2960598;40;20063;-85
2021/05/25 06:43:40;;;;;;;7.82;5.13;;;;;;;21.98;52.67;95133.53;2957226;40;20056;-84
2021/05/25 06:45:42;;;;;;;8.32;5.15;;;;;;;21.64;53.47;95136.50;2960126;40;20060;-84
2021/05/25 06:47:44;;;;;;;6.95;4.40;;;;;;;21.30;53.82;95127.09;2956544;40;20061;-85
2021/05/25 06:49:46;;;;;;;10.25;5.65;;;;;;;21.27;54.76;95128.34;2950806;40;20185;-83
2021/05/25 06:51:47;;;;;;;12.25;5.60;;;;;;;21.59;54.20;95135.50;2957056;40;20093;-70
2021/05/25 06:53:49;;;;;;;9.02;5.03;;;;;;;21.90;53.32;95126.66;2957711;40;20083;-71
2021/05/25 06:55:51;;;;;;;6.65;5.00;;;;;;;21.86;52.88;95128.94;2958366;40;20051;-72
2021/05/25 06:57:53;;;;;;;7.55;4.85;;;;;;;22.06;52.80;95118.06;2945352;40;20064;-72
2021/05/25 06:59:54;;;;;;;9.85;4.82;;;;;;;22.37;52.02;95118.19;2955134;40;20094;-72
2021/05/25 07:01:56;;;;;;;8.70;5.18;;;;;;;22.52;51.92;95118.66;2952456;40;20049;-71
2021/05/25 07:03:58;;;;;;;12.45;4.72;;;;;;;22.68;51.94;95120.72;2955166;40;20414;-71
2021/05/25 07:05:59;;;;;;;8.60;4.50;;;;;;;22.76;51.56;95122.28;2958590;40;20404;-70
2021/05/25 07:08:01;;;;;;;7.40;5.82;;;;;;;22.81;51.21;95113.56;2958300;40;20122;-72
2021/05/25 07:10:05;;;;;;;8.45;5.03;;;;;;;22.82;50.32;95118.69;2956919;40;20089;-71
2021/05/25 07:12:08;;;;;;;10.23;5.28;;;;;;;22.74;50.59;95099.50;2955927;40;20123;-72
2021/05/25 07:14:10;;;;;;;8.40;5.32;;;;;;;22.80;51.13;95106.59;2954241;40;20057;-72
2021/05/25 07:16:13;;;;;;;19.27;6.40;;;;;;;22.80;50.87;95098.56;2955468;40;20060;-72
2021/05/25 07:18:18;;;;;;;11.35;6.28;;;;;;;22.80;50.56;95102.09;2956096;40;20064;-70
2021/05/25 07:20:19;;;;;;;12.88;5.60;;;;;;;22.91;51.29;95095.16;2954766;40;20052;-71
2021/05/25 07:22:22;;;;;;;25.98;12.95;;;;;;;22.98;51.10;95089.72;2958654;40;20073;-70
2021/05/25 07:24:24;;;;;;;21.35;9.45;;;;;;;23.14;50.54;95083.75;2958336;40;20138;-70
2021/05/25 07:26:26;;;;;;;17.20;8.60;;;;;;;23.21;50.60;95081.81;2953950;40;20060;-70
2021/05/25 07:28:28;;;;;;;11.32;5.90;;;;;;;22.74;50.56;95086.97;2958522;40;20055;-71
2021/05/25 07:30:30;;;;;;;8.63;5.78;;;;;;;22.81;51.20;95087.69;2958441;40;20056;-72
2021/05/25 07:32:32;;;;;;;15.00;6.15;;;;;;;22.87;50.99;95089.44;2957699;40;20067;-71
2021/05/25 07:34:34;;;;;;;17.80;6.30;;;;;;;22.35;51.38;95101.59;2954516;40;20081;-71
2021/05/25 07:36:36;;;;;;;13.70;5.53;;;;;;;22.36;51.65;95101.38;2951063;40;20322;-71
2021/05/25 07:38:38;;;;;;;13.95;5.82;;;;;;;22.47;52.47;95087.25;2958693;40;20041;-72
2021/05/25 07:40:42;;;;;;;12.13;6.75;;;;;;;22.65;51.98;95086.44;2956623;40;20053;-72
2021/05/25 07:42:54;;;;;;;29.50;7.35;;;;;;;22.84;51.50;95091.75;2955209;40;20049;-83
2021/05/25 07:44:59;;;;;;;22.20;7.18;;;;;;;22.97;51.12;95093.41;2960157;40;20418;-83
2021/05/25 07:47:01;;;;;;;15.48;6.80;;;;;;;22.98;51.16;95105.75;2960629;40;20140;-84
2021/05/25 07:49:03;;;;;;;13.85;6.95;;;;;;;22.78;51.21;95101.50;2961869;40;20080;-83
2021/05/25 07:51:09;;;;;;;21.55;8.82;;;;;;;22.43;51.29;95102.09;2962704;40;20053;-84
2021/05/25 07:53:11;;;;;;;27.77;9.73;;;;;;;22.48;52.50;95098.78;2958066;40;20666;-85
2021/05/25 07:55:14;;;;;;;24.83;9.50;;;;;;;22.36;52.07;95098.69;2961687;40;20118;-85
2021/05/25 07:57:16;;;;;;;19.55;10.13;;;;;;;22.48;52.46;95094.25;2958670;40;20259;-85
2021/05/25 07:59:17;;;;;;;19.67;8.85;;;;;;;22.56;52.13;95090.44;2957500;40;20477;-71
2021/05/25 08:01:20;;;;;;;20.95;6.68;;;;;;;22.56;52.02;95090.44;2953857;40;20052;-71
2021/05/25 08:03:22;;;;;;;13.45;6.32;;;;;;;22.48;51.94;95088.91;2958107;40;20068;-71
2021/05/25 08:05:25;;;;;;;19.85;9.10;;;;;;;22.44;51.86;95089.59;2958210;40;20380;-71
2021/05/25 08:07:27;;;;;;;21.10;6.80;;;;;;;22.53;52.41;95090.09;2954147;40;20061;-73
2021/05/25 08:09:28;;;;;;;7.97;5.00;;;;;;;22.48;51.51;95091.59;2954696;40;20059;-71
2021/05/25 08:11:30;;;;;;;17.17;6.97;;;;;;;22.38;51.94;95087.81;2958867;40;20053;-82
2021/05/25 08:13:32;;;;;;;21.70;7.50;;;;;;;22.38;52.53;95093.16;2956041;40;20149;-74
2021/05/25 08:15:35;;;;;;;27.65;10.45;;;;;;;22.42;52.04;95078.31;2956741;40;20083;-71
2021/05/25 08:17:50;;;;;;;21.45;8.48;;;;;;;22.45;52.41;95086.69;2956694;40;20057;-70
2021/05/25 08:19:53;;;;;;;31.63;14.52;;;;;;;22.45;52.56;95078.66;2958268;40;20143;-72
2021/05/25 08:21:54;;;;;;;25.95;9.63;;;;;;;22.62;52.41;95080.72;2954903;40;20452;-71
2021/05/25 08:24:16;;;;;;;15.85;6.70;;;;;;;22.75;52.13;95085.91;2958249;40;20045;-72
2021/05/25 08:26:23;;;;;;;12.63;6.30;;;;;;;22.85;51.45;95080.84;2950380;40;20076;-72
2021/05/25 08:28:25;;;;;;;12.40;6.30;;;;;;;22.86;51.42;95074.44;2958344;40;20045;-72
2021/05/25 08:30:29;;;;;;;14.38;6.70;;;;;;;22.87;51.65;95069.94;2954894;40;20068;-72
2021/05/25 08:32:33;;;;;;;31.52;7.40;;;;;;;22.97;51.67;95085.41;2956894;40;20049;-72
2021/05/25 08:34:35;;;;;;;23.35;9.77;;;;;;;22.88;51.48;95079.56;2959128;40;20053;-70
2021/05/25 08:36:38;;;;;;;17.33;7.75;;;;;;;23.10;51.71;95082.56;2958291;40;20426;-72
2021/05/25 08:38:43;;;;;;;44.60;11.93;;;;;;;23.10;51.71;95078.06;2959173;40;20109;-72
2021/05/25 08:40:45;;;;;;;34.80;10.85;;;;;;;23.22;50.86;95070.06;2959047;40;20057;-70
2021/05/25 08:42:47;;;;;;;18.40;7.10;;;;;;;23.13;50.70;95070.63;2956632;40;20084;-71
2021/05/25 08:44:48;;;;;;;22.77;7.32;;;;;;;23.13;50.60;95079.47;2956040;40;20173;-72
2021/05/25 08:46:50;;;;;;;14.35;6.95;;;;;;;23.12;50.53;95071.66;2958706;40;20061;-73
2021/05/25 08:48:52;;;;;;;14.20;6.45;;;;;;;23.22;50.68;95078.09;2958356;40;20121;-72
2021/05/25 08:50:57;;;;;;;29.60;8.43;;;;;;;23.42;50.07;95072.41;2957177;40;20053;-73
2021/05/25 08:53:02;;;;;;;21.95;7.55;;;;;;;23.52;49.95;95078.03;2956603;40;20287;-71
2021/05/25 08:55:07;;;;;;;45.70;9.00;;;;;;;23.59;49.80;95067.22;2950448;40;20049;-71
2021/05/25 08:57:09;;;;;;;18.10;7.72;;;;;;;23.51;50.61;95070.22;2954722;40;20403;-71
2021/05/25 08:59:11;;;;;;;14.48;7.65;;;;;;;23.41;50.24;95070.00;2958279;40;20088;-73
2021/05/25 09:01:12;;;;;;;19.73;7.78;;;;;;;23.42;50.11;95066.28;2957424;40;20092;-72
2021/05/25 09:03:18;;;;;;;16.38;7.57;;;;;;;23.40;50.52;95065.69;2959555;40;20435;-70
2021/05/25 09:05:21;;;;;;;18.40;6.85;;;;;;;23.22;49.97;95055.91;2958055;40;20195;-70
2021/05/25 09:07:47;;;;;;;11.47;5.70;;;;;;;23.38;50.37;95059.75;2956075;40;20085;-72
2021/05/25 09:09:54;;;;;;;33.58;9.20;;;;;;;23.53;49.99;95054.75;2958039;40;20134;-72
2021/05/25 09:12:04;;;;;;;10.05;6.30;;;;;;;23.59;50.41;95059.19;2959378;40;20051;-71
2021/05/25 09:14:09;;;;;;;14.55;6.28;;;;;;;23.73;50.55;95049.09;2958925;40;20105;-71
2021/05/25 09:16:11;;;;;;;25.42;7.68;;;;;;;23.83;50.78;95052.03;2945873;40;20101;-71
2021/05/25 09:18:25;;;;;;;27.15;8.40;;;;;;;23.80;50.78;95043.66;2958027;40;20073;-71
2021/05/25 09:20:42;;;;;;;24.10;8.00;;;;;;;23.78;50.20;95048.44;2958035;40;20133;-70
2021/05/25 09:22:43;;;;;;;16.60;7.30;;;;;;;23.70;49.61;95047.72;2954863;40;20054;-71
2021/05/25 09:24:45;;;;;;;16.33;7.10;;;;;;;23.68;49.67;95044.44;2959009;40;20057;-71
2021/05/25 09:26:48;;;;;;;13.32;7.75;;;;;;;23.73;50.17;95034.91;2957317;40;20055;-70
2021/05/25 09:29:10;;;;;;;14.35;7.57;;;;;;;23.82;49.95;95042.38;2949415;40;20069;-71
2021/05/25 09:31:13;;;;;;;16.85;7.82;;;;;;;23.80;50.33;95039.13;2949318;40;20147;-71
2021/05/25 09:33:20;;;;;;;15.07;7.03;;;;;;;23.85;50.24;95047.25;2954238;40;20061;-73